sensor_id;sensor_type;location;lat;lon;timestamp;temperature;humidity
21090;DHT22;10703;51.020;6.128;2022-12-29T00:00:53;11.70;99.90
21090;DHT22;10703;51.020;6.128;2022-12-29T00:03:20;11.80;99.90
21090;DHT22;10703;51.020;6.128;2022-12-29T00:05:54;11.80;99.90
21090;DHT22;10703;51.020;6.128;2022-12-29T00:08:21;11.90;99.90
21090;DHT22;10703;51.020;6.128;2022-12-29T00:11:07;12.00;99.90
21090;DHT22;10703;51.020;6.128;2022-12-29T00:13:34;12.00;99.90
21090;DHT22;10703;51.020;6.128;2022-12-29T00:16:19;11.90;99.90
21090;DHT22;10703;51.020;6.128;2022-12-29T00:18:46;11.80;99.90
21090;DHT22;10703;51.020;6.128;2022-12-29T00:21:14;11.90;99.90
21090;DHT22;10703;51.020;6.128;2022-12-29T00:24:00;11.90;99.90
21090;DHT22;10703;51.020;6.128;2022-12-29T00:27:32;12.00;99.90
21090;DHT22;10703;51.020;6.128;2022-12-29T00:29:52;12.00;99.90
21090;DHT22;10703;51.020;6.128;2022-12-29T00:32:37;12.00;99.90
21090;DHT22;10703;51.020;6.128;2022-12-29T00:35:34;12.00;99.90
21090;DHT22;10703;51.020;6.128;2022-12-29T00:38:06;11.90;99.90
21090;DHT22;10703;51.020;6.128;2022-12-29T00:40:52;12.00;99.90
21090;DHT22;10703;51.020;6.128;2022-12-29T00:43:37;11.90;99.90
21090;DHT22;10703;51.020;6.128;2022-12-29T00:46:22;12.00;99.90
21090;DHT22;10703;51.020;6.128;2022-12-29T00:48:49;12.10;99.90
21090;DHT22;10703;51.020;6.128;2022-12-29T00:51:34;12.10;99.90
21090;DHT22;10703;51.020;6.128;2022-12-29T00:54:01;12.10;99.90
21090;DHT22;10703;51.020;6.128;2022-12-29T00:56:28;12.10;99.90
21090;DHT22;10703;51.020;6.128;2022-12-29T00:58:54;12.10;99.90
21090;DHT22;10703;51.020;6.128;2022-12-29T01:01:21;12.10;99.90
21090;DHT22;10703;51.020;6.128;2022-12-29T01:03:48;12.10;99.90
21090;DHT22;10703;51.020;6.128;2022-12-29T01:06:15;12.10;99.90
21090;DHT22;10703;51.020;6.128;2022-12-29T01:08:43;12.00;99.90
21090;DHT22;10703;51.020;6.128;2022-12-29T01:11:12;12.10;99.90
21090;DHT22;10703;51.020;6.128;2022-12-29T01:13:39;12.00;99.90
21090;DHT22;10703;51.020;6.128;2022-12-29T01:16:07;12.10;99.90
21090;DHT22;10703;51.020;6.128;2022-12-29T01:18:34;12.10;99.90
21090;DHT22;10703;51.020;6.128;2022-12-29T01:21:02;12.00;99.90
21090;DHT22;10703;51.020;6.128;2022-12-29T01:23:29;12.10;99.90
21090;DHT22;10703;51.020;6.128;2022-12-29T01:25:56;12.00;99.90
21090;DHT22;10703;51.020;6.128;2022-12-29T01:28:23;12.00;99.90
21090;DHT22;10703;51.020;6.128;2022-12-29T01:30:51;12.10;99.90
21090;DHT22;10703;51.020;6.128;2022-12-29T01:33:18;12.10;99.90
21090;DHT22;10703;51.020;6.128;2022-12-29T01:35:45;12.10;99.90
21090;DHT22;10703;51.020;6.128;2022-12-29T01:38:11;12.00;99.90
21090;DHT22;10703;51.020;6.128;2022-12-29T01:40:45;11.90;99.90
21090;DHT22;10703;51.020;6.128;2022-12-29T01:43:13;11.90;99.90
21090;DHT22;10703;51.020;6.128;2022-12-29T01:45:48;12.00;99.90
21090;DHT22;10703;51.020;6.128;2022-12-29T01:48:17;12.10;99.90
21090;DHT22;10703;51.020;6.128;2022-12-29T01:50:50;12.00;99.90
21090;DHT22;10703;51.020;6.128;2022-12-29T01:53:22;12.10;99.90
21090;DHT22;10703;51.020;6.128;2022-12-29T01:55:55;12.10;99.90
21090;DHT22;10703;51.020;6.128;2022-12-29T01:58:28;12.00;99.90
21090;DHT22;10703;51.020;6.128;2022-12-29T02:00:56;12.20;99.90
21090;DHT22;10703;51.020;6.128;2022-12-29T02:03:25;12.10;99.90
21090;DHT22;10703;51.020;6.128;2022-12-29T02:06:08;12.10;99.90
21090;DHT22;10703;51.020;6.128;2022-12-29T02:08:38;12.20;99.90
21090;DHT22;10703;51.020;6.128;2022-12-29T02:11:05;12.10;99.90
21090;DHT22;10703;51.020;6.128;2022-12-29T02:13:33;12.20;99.90
21090;DHT22;10703;51.020;6.128;2022-12-29T02:16:22;12.20;99.90
21090;DHT22;10703;51.020;6.128;2022-12-29T02:24:35;12.30;99.90
21090;DHT22;10703;51.020;6.128;2022-12-29T02:27:31;12.30;99.90
21090;DHT22;10703;51.020;6.128;2022-12-29T02:30:05;12.10;99.90
21090;DHT22;10703;51.020;6.128;2022-12-29T02:32:50;12.00;99.90
21090;DHT22;10703;51.020;6.128;2022-12-29T02:35:45;11.80;99.90
21090;DHT22;10703;51.020;6.128;2022-12-29T02:50:22;11.60;99.90
21090;DHT22;10703;51.020;6.128;2022-12-29T02:52:54;11.50;99.90
21090;DHT22;10703;51.020;6.128;2022-12-29T02:55:23;11.60;99.90
21090;DHT22;10703;51.020;6.128;2022-12-29T03:00:35;11.40;99.90
21090;DHT22;10703;51.020;6.128;2022-12-29T03:05:57;11.30;99.90
21090;DHT22;10703;51.020;6.128;2022-12-29T03:08:54;11.40;99.90
21090;DHT22;10703;51.020;6.128;2022-12-29T03:11:27;11.50;99.90
21090;DHT22;10703;51.020;6.128;2022-12-29T03:14:27;11.60;99.90
21090;DHT22;10703;51.020;6.128;2022-12-29T03:17:29;11.60;99.90
21090;DHT22;10703;51.020;6.128;2022-12-29T03:20:06;11.60;99.90
21090;DHT22;10703;51.020;6.128;2022-12-29T03:22:38;11.60;99.90
21090;DHT22;10703;51.020;6.128;2022-12-29T03:25:14;11.70;99.90
21090;DHT22;10703;51.020;6.128;2022-12-29T03:27:45;11.90;99.90
21090;DHT22;10703;51.020;6.128;2022-12-29T03:30:13;11.90;99.90
21090;DHT22;10703;51.020;6.128;2022-12-29T03:32:47;11.90;99.90
21090;DHT22;10703;51.020;6.128;2022-12-29T03:35:17;12.00;99.90
21090;DHT22;10703;51.020;6.128;2022-12-29T03:37:59;12.00;99.90
21090;DHT22;10703;51.020;6.128;2022-12-29T03:40:27;12.00;99.90
21090;DHT22;10703;51.020;6.128;2022-12-29T03:42:55;12.00;99.90
21090;DHT22;10703;51.020;6.128;2022-12-29T03:45:22;12.00;99.90
21090;DHT22;10703;51.020;6.128;2022-12-29T03:47:48;12.00;99.90
21090;DHT22;10703;51.020;6.128;2022-12-29T03:50:15;12.00;99.90
21090;DHT22;10703;51.020;6.128;2022-12-29T03:52:43;11.90;99.90
21090;DHT22;10703;51.020;6.128;2022-12-29T03:55:10;12.00;99.90
21090;DHT22;10703;51.020;6.128;2022-12-29T03:57:37;11.90;99.90
21090;DHT22;10703;51.020;6.128;2022-12-29T04:00:05;12.10;99.90
21090;DHT22;10703;51.020;6.128;2022-12-29T04:02:32;12.00;99.90
21090;DHT22;10703;51.020;6.128;2022-12-29T04:04:59;12.00;99.90
21090;DHT22;10703;51.020;6.128;2022-12-29T04:07:26;12.00;99.90
21090;DHT22;10703;51.020;6.128;2022-12-29T04:09:53;12.00;99.90
21090;DHT22;10703;51.020;6.128;2022-12-29T04:12:19;12.20;99.90
21090;DHT22;10703;51.020;6.128;2022-12-29T04:14:46;12.30;99.90
21090;DHT22;10703;51.020;6.128;2022-12-29T04:17:13;12.20;99.90
21090;DHT22;10703;51.020;6.128;2022-12-29T04:19:39;12.20;99.90
21090;DHT22;10703;51.020;6.128;2022-12-29T04:22:06;12.10;99.90
21090;DHT22;10703;51.020;6.128;2022-12-29T04:24:33;12.20;99.90
21090;DHT22;10703;51.020;6.128;2022-12-29T04:26:59;12.20;99.90
21090;DHT22;10703;51.020;6.128;2022-12-29T04:29:26;12.30;99.90
21090;DHT22;10703;51.020;6.128;2022-12-29T04:31:52;12.30;99.90
21090;DHT22;10703;51.020;6.128;2022-12-29T04:34:19;12.30;99.90
21090;DHT22;10703;51.020;6.128;2022-12-29T04:36:46;12.20;99.90
21090;DHT22;10703;51.020;6.128;2022-12-29T04:39:12;12.10;99.90
21090;DHT22;10703;51.020;6.128;2022-12-29T04:41:39;12.10;99.90
21090;DHT22;10703;51.020;6.128;2022-12-29T04:44:06;12.10;99.90
21090;DHT22;10703;51.020;6.128;2022-12-29T04:46:32;12.10;99.90
21090;DHT22;10703;51.020;6.128;2022-12-29T04:48:59;12.10;99.90
21090;DHT22;10703;51.020;6.128;2022-12-29T04:51:30;12.30;99.90
21090;DHT22;10703;51.020;6.128;2022-12-29T04:53:57;12.30;99.90
21090;DHT22;10703;51.020;6.128;2022-12-29T04:56:24;12.30;99.90
21090;DHT22;10703;51.020;6.128;2022-12-29T04:58:50;12.40;99.90
21090;DHT22;10703;51.020;6.128;2022-12-29T05:01:17;12.40;99.90
21090;DHT22;10703;51.020;6.128;2022-12-29T05:03:44;12.50;99.90
21090;DHT22;10703;51.020;6.128;2022-12-29T05:06:10;12.50;99.90
21090;DHT22;10703;51.020;6.128;2022-12-29T05:08:37;12.40;99.90
21090;DHT22;10703;51.020;6.128;2022-12-29T05:11:04;12.50;99.90
21090;DHT22;10703;51.020;6.128;2022-12-29T05:13:31;12.40;99.90
21090;DHT22;10703;51.020;6.128;2022-12-29T05:15:59;12.50;99.90
21090;DHT22;10703;51.020;6.128;2022-12-29T05:18:25;12.40;99.90
21090;DHT22;10703;51.020;6.128;2022-12-29T05:20:52;12.30;99.90
21090;DHT22;10703;51.020;6.128;2022-12-29T05:23:18;12.20;99.90
21090;DHT22;10703;51.020;6.128;2022-12-29T05:25:45;12.30;99.90
21090;DHT22;10703;51.020;6.128;2022-12-29T05:28:12;12.30;99.90
21090;DHT22;10703;51.020;6.128;2022-12-29T05:30:40;12.30;99.90
21090;DHT22;10703;51.020;6.128;2022-12-29T05:33:06;12.20;99.90
21090;DHT22;10703;51.020;6.128;2022-12-29T05:35:33;12.20;99.90
21090;DHT22;10703;51.020;6.128;2022-12-29T05:38:00;12.10;99.90
21090;DHT22;10703;51.020;6.128;2022-12-29T05:40:26;12.10;99.90
21090;DHT22;10703;51.020;6.128;2022-12-29T05:42:53;12.10;99.90
21090;DHT22;10703;51.020;6.128;2022-12-29T05:45:20;12.00;99.90
21090;DHT22;10703;51.020;6.128;2022-12-29T05:47:46;12.00;99.90
21090;DHT22;10703;51.020;6.128;2022-12-29T05:50:13;12.00;99.90
21090;DHT22;10703;51.020;6.128;2022-12-29T05:52:39;12.00;99.90
21090;DHT22;10703;51.020;6.128;2022-12-29T05:55:06;12.00;99.90
21090;DHT22;10703;51.020;6.128;2022-12-29T05:57:33;11.80;99.90
21090;DHT22;10703;51.020;6.128;2022-12-29T06:00:00;11.80;99.90
21090;DHT22;10703;51.020;6.128;2022-12-29T06:02:26;11.90;99.90
21090;DHT22;10703;51.020;6.128;2022-12-29T06:04:53;11.80;99.90
21090;DHT22;10703;51.020;6.128;2022-12-29T06:07:20;11.80;99.90
21090;DHT22;10703;51.020;6.128;2022-12-29T06:09:46;11.70;99.90
21090;DHT22;10703;51.020;6.128;2022-12-29T06:12:13;11.80;99.90
21090;DHT22;10703;51.020;6.128;2022-12-29T06:14:40;11.80;99.90
21090;DHT22;10703;51.020;6.128;2022-12-29T06:17:06;11.80;99.90
21090;DHT22;10703;51.020;6.128;2022-12-29T06:19:33;11.90;99.90
21090;DHT22;10703;51.020;6.128;2022-12-29T06:21:59;12.00;99.90
21090;DHT22;10703;51.020;6.128;2022-12-29T06:24:26;11.90;99.90
21090;DHT22;10703;51.020;6.128;2022-12-29T06:26:52;11.90;99.90
21090;DHT22;10703;51.020;6.128;2022-12-29T06:29:19;12.00;99.90
21090;DHT22;10703;51.020;6.128;2022-12-29T06:31:46;11.90;99.90
21090;DHT22;10703;51.020;6.128;2022-12-29T06:34:15;11.90;99.90
21090;DHT22;10703;51.020;6.128;2022-12-29T06:36:41;11.80;99.90
21090;DHT22;10703;51.020;6.128;2022-12-29T06:39:08;11.90;99.90
21090;DHT22;10703;51.020;6.128;2022-12-29T06:41:34;11.90;99.90
21090;DHT22;10703;51.020;6.128;2022-12-29T06:44:01;11.90;99.90
21090;DHT22;10703;51.020;6.128;2022-12-29T06:46:28;11.90;99.90
21090;DHT22;10703;51.020;6.128;2022-12-29T06:48:54;11.90;99.90
21090;DHT22;10703;51.020;6.128;2022-12-29T06:51:21;11.90;99.90
21090;DHT22;10703;51.020;6.128;2022-12-29T06:53:48;11.90;99.90
21090;DHT22;10703;51.020;6.128;2022-12-29T06:56:14;11.80;99.90
21090;DHT22;10703;51.020;6.128;2022-12-29T06:58:41;11.80;99.90
21090;DHT22;10703;51.020;6.128;2022-12-29T07:01:07;11.70;99.90
21090;DHT22;10703;51.020;6.128;2022-12-29T07:03:34;11.70;99.90
21090;DHT22;10703;51.020;6.128;2022-12-29T07:06:01;11.60;99.90
21090;DHT22;10703;51.020;6.128;2022-12-29T07:08:27;11.70;99.90
21090;DHT22;10703;51.020;6.128;2022-12-29T07:10:54;11.60;99.90
21090;DHT22;10703;51.020;6.128;2022-12-29T07:13:21;11.60;99.90
21090;DHT22;10703;51.020;6.128;2022-12-29T07:15:47;11.40;99.90
21090;DHT22;10703;51.020;6.128;2022-12-29T07:18:14;11.40;99.90
21090;DHT22;10703;51.020;6.128;2022-12-29T07:20:41;11.40;99.90
21090;DHT22;10703;51.020;6.128;2022-12-29T07:23:07;11.50;99.90
21090;DHT22;10703;51.020;6.128;2022-12-29T07:25:34;11.40;99.90
21090;DHT22;10703;51.020;6.128;2022-12-29T07:28:03;11.30;99.90
21090;DHT22;10703;51.020;6.128;2022-12-29T07:30:29;11.40;99.90
21090;DHT22;10703;51.020;6.128;2022-12-29T07:32:57;11.50;99.90
21090;DHT22;10703;51.020;6.128;2022-12-29T07:35:23;11.50;99.90
21090;DHT22;10703;51.020;6.128;2022-12-29T07:37:50;11.50;99.90
21090;DHT22;10703;51.020;6.128;2022-12-29T07:40:17;11.40;99.90
21090;DHT22;10703;51.020;6.128;2022-12-29T07:42:43;11.40;99.90
21090;DHT22;10703;51.020;6.128;2022-12-29T07:45:10;11.50;99.90
21090;DHT22;10703;51.020;6.128;2022-12-29T07:47:37;11.50;99.90
21090;DHT22;10703;51.020;6.128;2022-12-29T07:50:04;11.50;99.90
21090;DHT22;10703;51.020;6.128;2022-12-29T07:52:31;11.40;99.90
21090;DHT22;10703;51.020;6.128;2022-12-29T07:54:57;11.50;99.90
21090;DHT22;10703;51.020;6.128;2022-12-29T07:57:24;11.50;99.90
21090;DHT22;10703;51.020;6.128;2022-12-29T07:59:57;11.50;99.90
21090;DHT22;10703;51.020;6.128;2022-12-29T08:02:24;11.20;99.90
21090;DHT22;10703;51.020;6.128;2022-12-29T08:04:52;10.60;99.90
21090;DHT22;10703;51.020;6.128;2022-12-29T08:07:19;10.20;99.90
21090;DHT22;10703;51.020;6.128;2022-12-29T08:09:45;10.10;99.90
21090;DHT22;10703;51.020;6.128;2022-12-29T08:12:12;10.00;99.90
21090;DHT22;10703;51.020;6.128;2022-12-29T08:14:39;9.90;99.90
21090;DHT22;10703;51.020;6.128;2022-12-29T08:17:05;10.00;99.90
21090;DHT22;10703;51.020;6.128;2022-12-29T08:19:32;10.10;99.90
21090;DHT22;10703;51.020;6.128;2022-12-29T08:21:59;10.30;99.90
21090;DHT22;10703;51.020;6.128;2022-12-29T08:24:25;10.40;99.90
21090;DHT22;10703;51.020;6.128;2022-12-29T08:26:52;10.70;99.90
21090;DHT22;10703;51.020;6.128;2022-12-29T08:29:18;10.80;99.90
21090;DHT22;10703;51.020;6.128;2022-12-29T08:31:45;11.00;99.90
21090;DHT22;10703;51.020;6.128;2022-12-29T08:34:12;10.90;99.90
21090;DHT22;10703;51.020;6.128;2022-12-29T08:36:39;11.00;99.90
21090;DHT22;10703;51.020;6.128;2022-12-29T08:39:06;11.10;99.90
21090;DHT22;10703;51.020;6.128;2022-12-29T08:41:32;11.00;99.90
21090;DHT22;10703;51.020;6.128;2022-12-29T08:43:59;11.00;99.90
21090;DHT22;10703;51.020;6.128;2022-12-29T08:46:26;11.40;99.90
21090;DHT22;10703;51.020;6.128;2022-12-29T08:48:53;11.40;99.90
21090;DHT22;10703;51.020;6.128;2022-12-29T08:51:20;11.60;99.90
21090;DHT22;10703;51.020;6.128;2022-12-29T08:53:50;11.30;99.90
21090;DHT22;10703;51.020;6.128;2022-12-29T08:56:17;11.70;99.90
21090;DHT22;10703;51.020;6.128;2022-12-29T08:58:43;11.80;99.90
21090;DHT22;10703;51.020;6.128;2022-12-29T09:01:10;11.80;99.90
21090;DHT22;10703;51.020;6.128;2022-12-29T09:03:37;12.10;99.90
21090;DHT22;10703;51.020;6.128;2022-12-29T09:06:24;12.10;99.90
21090;DHT22;10703;51.020;6.128;2022-12-29T09:08:53;12.20;99.90
21090;DHT22;10703;51.020;6.128;2022-12-29T09:11:23;11.90;99.90
21090;DHT22;10703;51.020;6.128;2022-12-29T09:13:51;11.70;99.90
21090;DHT22;10703;51.020;6.128;2022-12-29T09:16:21;11.80;99.90
21090;DHT22;10703;51.020;6.128;2022-12-29T09:18:48;12.10;99.90
21090;DHT22;10703;51.020;6.128;2022-12-29T09:21:15;12.30;99.90
21090;DHT22;10703;51.020;6.128;2022-12-29T09:23:42;12.20;99.90
21090;DHT22;10703;51.020;6.128;2022-12-29T09:26:09;12.10;99.90
21090;DHT22;10703;51.020;6.128;2022-12-29T09:28:36;12.00;99.90
21090;DHT22;10703;51.020;6.128;2022-12-29T09:31:03;11.90;99.90
21090;DHT22;10703;51.020;6.128;2022-12-29T09:33:29;11.80;99.90
21090;DHT22;10703;51.020;6.128;2022-12-29T09:35:57;11.90;99.90
21090;DHT22;10703;51.020;6.128;2022-12-29T09:38:26;11.80;99.90
21090;DHT22;10703;51.020;6.128;2022-12-29T09:40:55;11.60;99.90
21090;DHT22;10703;51.020;6.128;2022-12-29T09:43:38;11.70;99.90
21090;DHT22;10703;51.020;6.128;2022-12-29T09:48:44;11.90;99.90
21090;DHT22;10703;51.020;6.128;2022-12-29T09:51:15;11.70;99.90
21090;DHT22;10703;51.020;6.128;2022-12-29T09:53:56;11.70;99.90
21090;DHT22;10703;51.020;6.128;2022-12-29T09:56:25;11.50;99.90
21090;DHT22;10703;51.020;6.128;2022-12-29T10:01:41;11.80;99.90
21090;DHT22;10703;51.020;6.128;2022-12-29T10:04:09;11.90;99.90
21090;DHT22;10703;51.020;6.128;2022-12-29T10:06:51;12.00;99.90
21090;DHT22;10703;51.020;6.128;2022-12-29T10:09:50;12.10;99.90
21090;DHT22;10703;51.020;6.128;2022-12-29T10:12:28;12.20;99.90
21090;DHT22;10703;51.020;6.128;2022-12-29T10:18:26;12.20;99.90
21090;DHT22;10703;51.020;6.128;2022-12-29T10:23:39;12.30;99.90
21090;DHT22;10703;51.020;6.128;2022-12-29T10:26:17;11.70;99.90
21090;DHT22;10703;51.020;6.128;2022-12-29T10:28:51;11.80;99.90
21090;DHT22;10703;51.020;6.128;2022-12-29T10:31:22;12.00;99.90
21090;DHT22;10703;51.020;6.128;2022-12-29T10:33:56;12.10;99.90
21090;DHT22;10703;51.020;6.128;2022-12-29T10:36:42;12.10;99.90
21090;DHT22;10703;51.020;6.128;2022-12-29T10:39:20;12.10;99.90
21090;DHT22;10703;51.020;6.128;2022-12-29T10:44:30;12.40;99.90
21090;DHT22;10703;51.020;6.128;2022-12-29T10:47:00;12.40;99.90
21090;DHT22;10703;51.020;6.128;2022-12-29T10:49:32;12.30;99.90
21090;DHT22;10703;51.020;6.128;2022-12-29T10:52:02;12.20;99.90
21090;DHT22;10703;51.020;6.128;2022-12-29T10:54:49;12.20;99.90
21090;DHT22;10703;51.020;6.128;2022-12-29T10:57:36;12.10;99.90
21090;DHT22;10703;51.020;6.128;2022-12-29T11:00:13;11.90;99.90
21090;DHT22;10703;51.020;6.128;2022-12-29T11:05:55;11.90;99.90
21090;DHT22;10703;51.020;6.128;2022-12-29T11:08:51;11.80;99.90
21090;DHT22;10703;51.020;6.128;2022-12-29T11:11:25;11.70;99.90
21090;DHT22;10703;51.020;6.128;2022-12-29T11:16:36;11.60;99.90
21090;DHT22;10703;51.020;6.128;2022-12-29T11:19:03;11.70;99.90
21090;DHT22;10703;51.020;6.128;2022-12-29T11:21:31;11.60;99.90
21090;DHT22;10703;51.020;6.128;2022-12-29T11:24:04;11.60;99.90
21090;DHT22;10703;51.020;6.128;2022-12-29T11:26:32;11.60;99.90
21090;DHT22;10703;51.020;6.128;2022-12-29T11:29:26;12.00;99.90
21090;DHT22;10703;51.020;6.128;2022-12-29T11:31:55;11.80;99.90
21090;DHT22;10703;51.020;6.128;2022-12-29T11:34:35;11.80;99.90
21090;DHT22;10703;51.020;6.128;2022-12-29T11:37:05;11.80;99.90
21090;DHT22;10703;51.020;6.128;2022-12-29T11:42:09;11.70;99.90
21090;DHT22;10703;51.020;6.128;2022-12-29T11:44:43;11.70;99.90
21090;DHT22;10703;51.020;6.128;2022-12-29T11:47:28;11.80;99.90
21090;DHT22;10703;51.020;6.128;2022-12-29T11:50:00;11.80;99.90
21090;DHT22;10703;51.020;6.128;2022-12-29T11:52:33;11.70;99.90
21090;DHT22;10703;51.020;6.128;2022-12-29T11:55:04;11.70;99.90
21090;DHT22;10703;51.020;6.128;2022-12-29T11:57:33;11.60;99.90
21090;DHT22;10703;51.020;6.128;2022-12-29T12:00:09;11.60;99.90
21090;DHT22;10703;51.020;6.128;2022-12-29T12:02:44;11.60;99.90
21090;DHT22;10703;51.020;6.128;2022-12-29T12:08:17;11.50;99.90
21090;DHT22;10703;51.020;6.128;2022-12-29T12:10:52;11.50;99.90
21090;DHT22;10703;51.020;6.128;2022-12-29T12:13:27;11.50;99.90
21090;DHT22;10703;51.020;6.128;2022-12-29T12:16:09;11.50;99.90
21090;DHT22;10703;51.020;6.128;2022-12-29T12:18:47;11.50;99.90
21090;DHT22;10703;51.020;6.128;2022-12-29T12:21:32;11.50;99.90
21090;DHT22;10703;51.020;6.128;2022-12-29T12:27:24;11.30;99.90
21090;DHT22;10703;51.020;6.128;2022-12-29T12:35:15;11.40;99.90
21090;DHT22;10703;51.020;6.128;2022-12-29T12:38:30;11.30;99.90
21090;DHT22;10703;51.020;6.128;2022-12-29T12:41:25;11.40;99.90
21090;DHT22;10703;51.020;6.128;2022-12-29T12:52:32;11.40;99.90
21090;DHT22;10703;51.020;6.128;2022-12-29T13:00:21;11.50;99.90
21090;DHT22;10703;51.020;6.128;2022-12-29T13:08:34;11.40;99.90
21090;DHT22;10703;51.020;6.128;2022-12-29T13:19:34;11.40;99.90
21090;DHT22;10703;51.020;6.128;2022-12-29T13:30:58;11.30;99.90
21090;DHT22;10703;51.020;6.128;2022-12-29T13:36:40;11.30;99.90
21090;DHT22;10703;51.020;6.128;2022-12-29T13:39:22;11.20;99.90
21090;DHT22;10703;51.020;6.128;2022-12-29T13:41:53;11.10;99.90
21090;DHT22;10703;51.020;6.128;2022-12-29T13:44:41;11.20;99.90
21090;DHT22;10703;51.020;6.128;2022-12-29T13:47:36;11.10;99.90
21090;DHT22;10703;51.020;6.128;2022-12-29T13:50:14;11.20;99.90
21090;DHT22;10703;51.020;6.128;2022-12-29T13:55:41;11.20;99.90
21090;DHT22;10703;51.020;6.128;2022-12-29T14:01:17;11.10;99.90
21090;DHT22;10703;51.020;6.128;2022-12-29T14:03:57;11.10;99.90
21090;DHT22;10703;51.020;6.128;2022-12-29T14:09:06;11.10;99.90
21090;DHT22;10703;51.020;6.128;2022-12-29T14:12:00;10.90;99.90
21090;DHT22;10703;51.020;6.128;2022-12-29T14:14:30;11.00;99.90
21090;DHT22;10703;51.020;6.128;2022-12-29T14:17:11;10.90;99.90
21090;DHT22;10703;51.020;6.128;2022-12-29T14:19:43;10.90;99.90
21090;DHT22;10703;51.020;6.128;2022-12-29T14:22:11;11.00;99.90
21090;DHT22;10703;51.020;6.128;2022-12-29T14:24:45;11.00;99.90
21090;DHT22;10703;51.020;6.128;2022-12-29T14:34:48;10.90;99.90
21090;DHT22;10703;51.020;6.128;2022-12-29T14:37:30;11.00;99.90
21090;DHT22;10703;51.020;6.128;2022-12-29T14:40:06;11.00;99.90
21090;DHT22;10703;51.020;6.128;2022-12-29T14:42:41;10.90;99.90
21090;DHT22;10703;51.020;6.128;2022-12-29T14:45:27;10.90;99.90
21090;DHT22;10703;51.020;6.128;2022-12-29T14:47:55;10.90;99.90
21090;DHT22;10703;51.020;6.128;2022-12-29T14:50:24;10.90;99.90
21090;DHT22;10703;51.020;6.128;2022-12-29T14:52:56;10.90;99.90
21090;DHT22;10703;51.020;6.128;2022-12-29T14:55:45;10.80;99.90
21090;DHT22;10703;51.020;6.128;2022-12-29T14:58:23;10.80;99.90
21090;DHT22;10703;51.020;6.128;2022-12-29T15:00:52;10.80;99.90
21090;DHT22;10703;51.020;6.128;2022-12-29T15:03:29;10.80;99.90
21090;DHT22;10703;51.020;6.128;2022-12-29T15:06:09;10.90;99.90
21090;DHT22;10703;51.020;6.128;2022-12-29T15:08:50;10.80;99.90
21090;DHT22;10703;51.020;6.128;2022-12-29T15:11:21;10.80;99.90
21090;DHT22;10703;51.020;6.128;2022-12-29T15:13:49;10.90;99.90
21090;DHT22;10703;51.020;6.128;2022-12-29T15:16:24;10.80;99.90
21090;DHT22;10703;51.020;6.128;2022-12-29T15:18:52;10.80;99.90
21090;DHT22;10703;51.020;6.128;2022-12-29T15:21:27;10.80;99.90
21090;DHT22;10703;51.020;6.128;2022-12-29T15:23:55;10.70;99.90
21090;DHT22;10703;51.020;6.128;2022-12-29T15:26:22;10.70;99.90
21090;DHT22;10703;51.020;6.128;2022-12-29T15:28:51;10.70;99.90
21090;DHT22;10703;51.020;6.128;2022-12-29T15:31:23;10.60;99.90
21090;DHT22;10703;51.020;6.128;2022-12-29T15:34:10;10.70;99.90
21090;DHT22;10703;51.020;6.128;2022-12-29T15:36:39;10.60;99.90
21090;DHT22;10703;51.020;6.128;2022-12-29T15:39:20;10.60;99.90
21090;DHT22;10703;51.020;6.128;2022-12-29T15:41:53;10.50;99.90
21090;DHT22;10703;51.020;6.128;2022-12-29T15:44:44;10.40;99.90
21090;DHT22;10703;51.020;6.128;2022-12-29T15:47:18;10.30;99.90
21090;DHT22;10703;51.020;6.128;2022-12-29T15:49:50;10.20;99.90
21090;DHT22;10703;51.020;6.128;2022-12-29T15:52:21;10.10;99.90
21090;DHT22;10703;51.020;6.128;2022-12-29T15:54:50;10.00;99.90
21090;DHT22;10703;51.020;6.128;2022-12-29T15:57:29;10.10;99.90
21090;DHT22;10703;51.020;6.128;2022-12-29T15:59:56;10.00;99.90
21090;DHT22;10703;51.020;6.128;2022-12-29T16:02:24;9.90;99.90
21090;DHT22;10703;51.020;6.128;2022-12-29T16:04:52;9.90;99.90
21090;DHT22;10703;51.020;6.128;2022-12-29T16:07:38;9.90;99.90
21090;DHT22;10703;51.020;6.128;2022-12-29T16:10:37;10.00;99.90
21090;DHT22;10703;51.020;6.128;2022-12-29T16:13:52;10.00;99.90
21090;DHT22;10703;51.020;6.128;2022-12-29T16:15:59;10.00;99.90
21090;DHT22;10703;51.020;6.128;2022-12-29T16:18:29;10.00;99.90
21090;DHT22;10703;51.020;6.128;2022-12-29T16:20:56;10.00;99.90
21090;DHT22;10703;51.020;6.128;2022-12-29T16:23:26;9.90;99.90
21090;DHT22;10703;51.020;6.128;2022-12-29T16:25:55;9.80;99.90
21090;DHT22;10703;51.020;6.128;2022-12-29T16:28:28;9.90;99.90
21090;DHT22;10703;51.020;6.128;2022-12-29T16:31:03;10.00;99.90
21090;DHT22;10703;51.020;6.128;2022-12-29T16:33:38;9.90;99.90
21090;DHT22;10703;51.020;6.128;2022-12-29T16:36:34;9.90;99.90
21090;DHT22;10703;51.020;6.128;2022-12-29T16:39:34;9.90;99.90
21090;DHT22;10703;51.020;6.128;2022-12-29T16:47:46;10.00;99.90
21090;DHT22;10703;51.020;6.128;2022-12-29T16:50:18;9.90;99.90
21090;DHT22;10703;51.020;6.128;2022-12-29T16:52:54;9.90;99.90
21090;DHT22;10703;51.020;6.128;2022-12-29T16:55:21;10.00;99.90
21090;DHT22;10703;51.020;6.128;2022-12-29T16:57:49;10.00;99.90
21090;DHT22;10703;51.020;6.128;2022-12-29T17:00:25;10.00;99.90
21090;DHT22;10703;51.020;6.128;2022-12-29T17:02:55;9.80;99.90
21090;DHT22;10703;51.020;6.128;2022-12-29T17:05:22;9.70;99.90
21090;DHT22;10703;51.020;6.128;2022-12-29T17:07:49;9.60;99.90
21090;DHT22;10703;51.020;6.128;2022-12-29T17:10:17;9.60;99.90
21090;DHT22;10703;51.020;6.128;2022-12-29T17:12:45;9.60;99.90
21090;DHT22;10703;51.020;6.128;2022-12-29T17:15:26;9.50;99.90
21090;DHT22;10703;51.020;6.128;2022-12-29T17:17:55;9.30;99.90
21090;DHT22;10703;51.020;6.128;2022-12-29T17:20:24;9.10;99.90
21090;DHT22;10703;51.020;6.128;2022-12-29T17:22:52;8.90;99.90
21090;DHT22;10703;51.020;6.128;2022-12-29T17:25:42;9.00;99.90
21090;DHT22;10703;51.020;6.128;2022-12-29T17:28:25;8.90;99.90
21090;DHT22;10703;51.020;6.128;2022-12-29T17:30:54;8.90;99.90
21090;DHT22;10703;51.020;6.128;2022-12-29T17:33:21;8.80;99.90
21090;DHT22;10703;51.020;6.128;2022-12-29T17:35:48;8.70;99.90
21090;DHT22;10703;51.020;6.128;2022-12-29T17:38:29;8.70;99.90
21090;DHT22;10703;51.020;6.128;2022-12-29T17:40:57;8.70;99.90
21090;DHT22;10703;51.020;6.128;2022-12-29T17:43:24;8.50;99.90
21090;DHT22;10703;51.020;6.128;2022-12-29T17:45:58;8.40;99.90
21090;DHT22;10703;51.020;6.128;2022-12-29T17:48:25;8.60;99.90
21090;DHT22;10703;51.020;6.128;2022-12-29T17:50:53;8.70;99.90
21090;DHT22;10703;51.020;6.128;2022-12-29T17:53:25;8.70;99.90
21090;DHT22;10703;51.020;6.128;2022-12-29T17:55:53;8.50;99.90
21090;DHT22;10703;51.020;6.128;2022-12-29T17:58:22;8.60;99.90
21090;DHT22;10703;51.020;6.128;2022-12-29T18:00:51;8.60;99.90